Time;durP1;ratioP1;P1;durP2;ratioP2;P2;SDS_P1;SDS_P2;PMS_P1;PMS_P2;Temp;Humidity;BMP_temperature;BMP_pressure;BME280_temperature;BME280_humidity;BME280_pressure;Samples;Min_cycle;Max_cycle;Signal;HPM_P1;HPM_P2
2022/11/18 00:01:12;;;;;;;4.18;3.40;;;;;;;22.49;46.09;93868.59;5014277;28;20541;-61
2022/11/18 00:03:37;;;;;;;5.10;3.60;;;;;;;22.65;45.89;93875.66;4993421;28;20030;-62
2022/11/18 00:06:03;;;;;;;4.65;3.30;;;;;;;22.60;46.13;93873.78;4981901;28;20064;-62
2022/11/18 00:08:29;;;;;;;4.65;3.08;;;;;;;22.61;46.09;93875.25;4997668;28;20046;-60
2022/11/18 00:10:54;;;;;;;4.88;3.33;;;;;;;21.00;46.14;93649.66;4980823;28;20057;-61
2022/11/18 00:16:06;;;;;;;5.20;3.40;;;;;;;22.33;46.01;93877.91;5015059;28;20147;-61
2022/11/18 00:18:32;;;;;;;4.78;3.67;;;;;;;22.55;46.00;93882.81;5013456;28;20132;-60
2022/11/18 00:21:05;;;;;;;5.00;3.60;;;;;;;22.51;46.47;93882.41;5012792;28;20052;-62
2022/11/18 00:23:30;;;;;;;4.93;3.55;;;;;;;22.46;46.30;93875.09;4980609;28;20828;-61
2022/11/18 00:26:01;;;;;;;4.80;3.47;;;;;;;22.46;46.32;93872.38;4980669;28;20409;-61
2022/11/18 00:28:26;;;;;;;5.07;3.55;;;;;;;22.47;46.28;93876.56;5014277;28;20065;-61
2022/11/18 00:30:52;;;;;;;5.45;3.80;;;;;;;22.45;46.25;93879.81;5014433;28;20502;-60
2022/11/18 00:33:17;;;;;;;4.72;3.47;;;;;;;22.42;46.42;93896.50;4982422;28;20042;-61
2022/11/18 00:35:43;;;;;;;4.68;3.80;;;;;;;22.46;46.22;93881.28;4980122;28;20041;-61
2022/11/18 00:38:08;;;;;;;4.80;3.58;;;;;;;22.43;46.72;93887.03;4958103;28;20042;-61
2022/11/18 00:40:34;;;;;;;5.57;3.90;;;;;;;22.41;46.20;93884.84;4975869;28;20038;-61
2022/11/18 00:42:59;;;;;;;4.68;3.35;;;;;;;22.39;46.69;93875.78;5016024;28;20415;-61
2022/11/18 00:45:25;;;;;;;5.10;3.70;;;;;;;22.42;46.69;93907.38;4996216;28;20041;-58
2022/11/18 00:47:50;;;;;;;5.65;3.90;;;;;;;22.10;46.23;93849.69;4993324;28;20042;-61
2022/11/18 00:50:16;;;;;;;5.38;3.42;;;;;;;22.23;46.32;93863.28;4980283;28;20103;-60
2022/11/18 00:52:41;;;;;;;5.13;3.63;;;;;;;22.21;46.47;93870.50;4995191;28;20060;-62
2022/11/18 00:55:07;;;;;;;5.07;3.70;;;;;;;22.38;46.57;93884.47;4995520;28;20037;-60
2022/11/18 00:57:32;;;;;;;5.05;3.67;;;;;;;22.34;46.31;93890.22;5013730;28;20591;-61
2022/11/18 00:59:58;;;;;;;5.15;3.50;;;;;;;21.07;46.26;93708.72;4963840;28;20034;-63
2022/11/18 01:02:23;;;;;;;4.82;3.40;;;;;;;22.33;46.74;93880.63;4980570;28;20057;-61
2022/11/18 01:04:49;;;;;;;5.43;3.92;;;;;;;21.17;46.36;93739.59;4979476;28;20374;-61
2022/11/18 01:07:14;;;;;;;4.60;3.47;;;;;;;22.13;46.15;93897.59;4995982;28;20103;-61
2022/11/18 01:09:40;;;;;;;5.32;3.70;;;;;;;21.93;46.41;93824.88;4996805;28;20029;-61
2022/11/18 01:14:49;;;;;;;4.55;3.40;;;;;;;22.29;46.67;93876.78;5013532;28;20562;-61
2022/11/18 01:17:14;;;;;;;5.10;3.83;;;;;;;21.31;46.75;93735.59;4979494;28;20054;-61
2022/11/18 01:19:40;;;;;;;4.90;3.60;;;;;;;22.13;46.47;93858.81;5015199;28;20041;-61
2022/11/18 01:22:05;;;;;;;5.65;4.30;;;;;;;22.22;46.71;93886.28;4978783;28;20155;-61
2022/11/18 01:24:31;;;;;;;5.15;3.85;;;;;;;20.77;46.45;93663.50;5013826;28;20033;-62
2022/11/18 01:26:57;;;;;;;4.63;3.50;;;;;;;22.20;46.64;93896.94;4995586;28;20039;-62
2022/11/18 01:29:22;;;;;;;5.03;3.83;;;;;;;22.05;46.57;93847.84;4992248;28;20049;-66
2022/11/18 01:31:48;;;;;;;4.97;4.05;;;;;;;22.22;46.72;93883.56;4963115;28;20049;-63
2022/11/18 01:34:13;;;;;;;4.57;3.40;;;;;;;22.00;46.66;93856.88;4997276;28;20052;-65
2022/11/18 01:36:39;;;;;;;5.80;3.90;;;;;;;21.83;46.81;93836.00;4978759;28;20144;-62
2022/11/18 01:39:04;;;;;;;5.53;3.90;;;;;;;22.16;46.59;93884.94;4961905;28;20037;-62
2022/11/18 01:41:30;;;;;;;5.60;4.30;;;;;;;22.11;46.90;93878.34;4999089;28;20057;-62
2022/11/18 01:44:03;;;;;;;4.72;3.78;;;;;;;22.13;46.74;93870.41;4995546;28;20046;-62
2022/11/18 01:46:31;;;;;;;4.93;3.47;;;;;;;22.17;47.12;93891.84;4993420;28;20050;-62
2022/11/18 01:48:59;;;;;;;5.72;3.70;;;;;;;22.15;46.83;93878.78;4993418;28;20157;-62
2022/11/18 01:51:32;;;;;;;5.13;3.80;;;;;;;21.93;46.62;93878.53;4994318;28;20431;-61
2022/11/18 01:54:01;;;;;;;5.03;3.90;;;;;;;21.92;46.83;93845.16;4994524;28;20267;-63
2022/11/18 01:56:31;;;;;;;5.35;4.07;;;;;;;22.14;46.81;93877.31;5013323;28;20044;-61
2022/11/18 01:59:08;;;;;;;5.03;3.55;;;;;;;21.79;46.64;93862.75;4994150;28;20069;-61
2022/11/18 02:01:33;;;;;;;5.63;4.00;;;;;;;21.95;47.01;93898.47;4995355;28;20530;-62
2022/11/18 02:03:59;;;;;;;6.15;4.43;;;;;;;22.00;46.91;93856.88;4964987;28;20187;-62
2022/11/18 02:06:25;;;;;;;5.18;4.13;;;;;;;22.04;46.82;93875.56;4978871;28;20572;-63
2022/11/18 02:08:50;;;;;;;5.95;4.05;;;;;;;21.03;46.49;93724.59;4962696;28;20340;-62
2022/11/18 02:14:13;;;;;;;5.45;4.15;;;;;;;22.10;46.75;93904.06;4974061;28;20054;-62
2022/11/18 02:17:14;;;;;;;4.75;3.75;;;;;;;21.11;46.40;93741.69;5017592;28;20499;-62
2022/11/18 02:19:46;;;;;;;5.22;4.00;;;;;;;22.10;46.79;93897.91;4995872;28;20062;-61
2022/11/18 02:22:20;;;;;;;6.60;3.95;;;;;;;21.96;46.88;93861.88;4988919;28;20580;-61
2022/11/18 02:25:17;;;;;;;5.85;4.15;;;;;;;22.06;46.87;93887.38;4979698;28;20116;-62
2022/11/18 02:28:03;;;;;;;5.03;4.00;;;;;;;22.06;46.68;93881.94;4991376;28;20030;-62
2022/11/18 02:30:31;;;;;;;5.28;3.85;;;;;;;22.06;46.87;93881.94;4991388;28;20106;-62
2022/11/18 02:33:00;;;;;;;6.05;3.97;;;;;;;22.06;46.57;93881.94;4996306;28;20033;-62
2022/11/18 02:35:38;;;;;;;4.72;3.85;;;;;;;22.05;46.66;93868.88;4991729;28;20116;-62
2022/11/18 02:38:12;;;;;;;5.63;3.97;;;;;;;22.05;46.93;93869.59;4995088;28;20202;-63
2022/11/18 02:41:09;;;;;;;5.45;3.88;;;;;;;21.99;46.75;93855.41;4982004;28;20129;-61
2022/11/18 02:43:45;;;;;;;4.95;3.63;;;;;;;21.90;46.96;93851.66;4969381;28;20056;-61
2022/11/18 02:46:13;;;;;;;4.68;3.80;;;;;;;22.02;46.89;93873.38;4967059;28;20080;-61
2022/11/18 02:48:41;;;;;;;5.03;3.95;;;;;;;21.86;47.00;93856.69;4954459;28;20034;-62
2022/11/18 02:51:07;;;;;;;5.10;3.92;;;;;;;22.01;47.25;93869.19;4997283;28;20508;-62
2022/11/18 02:53:33;;;;;;;5.10;4.13;;;;;;;19.72;46.24;93530.50;4973388;28;20131;-61
2022/11/18 02:55:58;;;;;;;5.57;3.95;;;;;;;22.01;47.06;93874.63;4995711;28;20553;-61
2022/11/18 02:58:24;;;;;;;4.53;3.60;;;;;;;22.00;46.91;93878.59;4977776;28;20129;-61
2022/11/18 03:00:57;;;;;;;5.35;3.92;;;;;;;22.00;46.57;93881.31;4980287;28;20076;-59
2022/11/18 03:03:28;;;;;;;5.50;3.85;;;;;;;21.97;47.35;93885.09;4997330;28;20038;-62
2022/11/18 03:06:10;;;;;;;5.90;3.83;;;;;;;21.98;46.84;93913.72;4998068;28;20049;-62
2022/11/18 03:08:55;;;;;;;5.10;3.83;;;;;;;21.95;47.04;93876.72;4993555;28;20049;-61
2022/11/18 03:11:22;;;;;;;5.45;4.10;;;;;;;21.94;47.13;93880.72;4995026;28;20868;-60
2022/11/18 03:14:02;;;;;;;4.65;3.58;;;;;;;21.93;47.04;93879.25;4996500;28;20140;-61
2022/11/18 03:16:35;;;;;;;4.05;3.42;;;;;;;21.47;46.74;93810.59;4997324;28;20047;-62
2022/11/18 03:19:14;;;;;;;5.07;3.90;;;;;;;19.55;46.74;93533.50;4997173;28;20073;-60
2022/11/18 03:21:44;;;;;;;5.22;3.92;;;;;;;21.91;47.13;93891.16;4965155;28;20525;-61
2022/11/18 03:24:40;;;;;;;4.95;4.10;;;;;;;21.91;46.99;93874.88;4981663;28;20036;-61
2022/11/18 03:27:16;;;;;;;4.70;3.60;;;;;;;21.92;46.89;93899.53;4990362;28;20037;-61
2022/11/18 03:29:46;;;;;;;5.57;3.97;;;;;;;21.69;47.07;93837.31;4993185;28;20099;-62
2022/11/18 03:32:15;;;;;;;4.95;3.83;;;;;;;21.82;47.08;93867.88;4984798;28;20147;-61
2022/11/18 03:34:51;;;;;;;5.32;3.95;;;;;;;21.92;47.04;93881.78;4979720;28;20402;-61
2022/11/18 03:37:17;;;;;;;5.38;4.00;;;;;;;21.74;46.84;93850.03;4980433;28;20053;-61
2022/11/18 03:39:46;;;;;;;4.93;3.92;;;;;;;21.65;46.87;93858.63;4996592;28;20540;-61
2022/11/18 03:42:13;;;;;;;5.72;4.03;;;;;;;20.84;46.80;93722.56;4981836;28;20896;-61
2022/11/18 03:44:40;;;;;;;5.78;4.13;;;;;;;20.86;46.78;93720.03;5012143;28;20242;-62
2022/11/18 03:47:17;;;;;;;5.10;3.88;;;;;;;21.42;46.96;93825.00;4994604;28;20049;-61
2022/11/18 03:49:45;;;;;;;4.75;3.65;;;;;;;21.82;46.79;93850.84;4976949;28;20446;-61
2022/11/18 03:52:14;;;;;;;4.95;3.80;;;;;;;20.50;46.86;93656.59;4995527;28;21257;-61
2022/11/18 03:54:39;;;;;;;5.40;4.13;;;;;;;21.84;47.14;93898.00;4980935;28;20246;-61
2022/11/18 03:57:14;;;;;;;5.50;4.03;;;;;;;21.84;46.86;93848.31;4997564;28;20377;-61
2022/11/18 03:59:44;;;;;;;5.38;3.95;;;;;;;21.45;46.69;93796.78;5015615;28;20053;-61
2022/11/18 04:02:20;;;;;;;5.50;4.05;;;;;;;21.84;47.15;93867.34;4993881;28;20099;-61
2022/11/18 04:04:47;;;;;;;5.28;3.90;;;;;;;21.69;47.08;93837.31;5014834;28;20410;-62
2022/11/18 04:07:19;;;;;;;6.50;4.05;;;;;;;21.80;47.07;93848.66;4962358;28;20057;-61
2022/11/18 04:09:55;;;;;;;4.95;3.88;;;;;;;21.82;46.97;93850.84;4996275;28;20028;-62
2022/11/18 04:12:21;;;;;;;5.15;4.05;;;;;;;21.81;47.13;93860.25;4994104;28;20137;-61
2022/11/18 04:14:48;;;;;;;6.00;4.25;;;;;;;21.82;46.92;93848.84;4963435;28;20061;-61
2022/11/18 04:17:19;;;;;;;5.40;4.30;;;;;;;21.81;47.01;93849.38;4980452;28;20052;-61
2022/11/18 04:19:44;;;;;;;5.32;4.03;;;;;;;21.80;46.90;93858.81;4992186;28;20398;-61
2022/11/18 04:22:10;;;;;;;5.40;4.20;;;;;;;21.77;47.10;93848.97;5013101;28;20053;-62
2022/11/18 04:24:36;;;;;;;5.47;4.15;;;;;;;21.42;47.11;93808.69;5014736;28;20040;-62
2022/11/18 04:27:01;;;;;;;5.65;4.53;;;;;;;21.77;47.11;93855.13;5013817;28;20107;-60
2022/11/18 04:29:28;;;;;;;5.45;3.97;;;;;;;21.78;47.02;93859.31;4992221;28;20430;-62
2022/11/18 04:31:53;;;;;;;5.57;4.20;;;;;;;21.77;46.96;93859.84;4995927;28;20544;-60
2022/11/18 04:34:19;;;;;;;5.72;4.03;;;;;;;21.42;47.05;93808.69;4994177;28;20387;-61
2022/11/18 04:36:45;;;;;;;5.72;3.70;;;;;;;21.79;47.17;93873.63;4991916;28;20087;-61
2022/11/18 04:39:10;;;;;;;5.32;4.45;;;;;;;21.50;47.02;93858.44;5013146;28;20445;-61
2022/11/18 04:44:24;;;;;;;5.93;4.45;;;;;;;21.75;47.10;93884.84;5002808;28;20142;-61
2022/11/18 04:46:49;;;;;;;5.70;4.25;;;;;;;21.58;46.91;93887.16;5014136;28;20041;-60
2022/11/18 04:49:15;;;;;;;5.40;4.30;;;;;;;21.63;47.03;93866.56;4995789;28;20425;-62
2022/11/18 04:51:41;;;;;;;6.90;4.43;;;;;;;21.55;46.99;93849.44;4995817;28;20485;-61
2022/11/18 04:54:06;;;;;;;5.32;4.15;;;;;;;21.73;47.19;93876.47;4992682;28;20120;-61
2022/11/18 04:56:32;;;;;;;7.20;4.90;;;;;;;21.73;46.97;93913.78;5015297;28;20132;-61
2022/11/18 04:59:01;;;;;;;5.63;4.15;;;;;;;21.15;46.94;93812.69;5014021;28;20969;-61
2022/11/18 05:01:27;;;;;;;5.65;4.25;;;;;;;21.70;47.11;93887.66;5012637;28;20057;-61
2022/11/18 05:03:52;;;;;;;6.43;4.32;;;;;;;21.59;47.51;93904.19;5014106;28;20057;-62
2022/11/18 05:06:18;;;;;;;5.60;4.20;;;;;;;20.88;46.95;93763.66;5013814;28;20544;-61
2022/11/18 05:08:44;;;;;;;6.68;4.30;;;;;;;21.76;46.91;93885.56;4992265;28;20188;-61
2022/11/18 05:13:53;;;;;;;5.80;4.05;;;;;;;21.75;46.93;93879.41;4990174;28;20725;-61
2022/11/18 05:16:18;;;;;;;5.13;4.28;;;;;;;21.73;47.14;93902.91;4995070;28;20053;-61
2022/11/18 05:18:44;;;;;;;5.47;4.22;;;;;;;21.59;47.11;93866.16;5014415;28;20029;-60
2022/11/18 05:21:09;;;;;;;6.28;4.68;;;;;;;21.59;46.58;93866.88;4993895;28;20044;-62
2022/11/18 05:23:35;;;;;;;6.10;4.55;;;;;;;20.46;46.89;93721.25;4974962;28;20037;-62
2022/11/18 05:26:04;;;;;;;6.40;4.65;;;;;;;21.76;47.49;93894.44;4979570;28;20053;-61
2022/11/18 05:28:30;;;;;;;6.25;4.20;;;;;;;21.79;48.14;93898.09;5010227;28;20053;-62
2022/11/18 05:30:55;;;;;;;6.45;4.07;;;;;;;21.89;47.37;93912.72;5010413;28;20045;-61
2022/11/18 05:33:21;;;;;;;5.43;4.25;;;;;;;22.09;46.93;93891.00;4992426;28;20026;-62
2022/11/18 05:35:46;;;;;;;6.38;4.50;;;;;;;22.00;46.89;93889.47;5012227;28;20049;-63
2022/11/18 05:38:11;;;;;;;6.43;4.30;;;;;;;22.28;46.55;93930.41;4996626;28;20053;-65
2022/11/18 05:40:37;;;;;;;5.97;4.55;;;;;;;22.19;46.68;93906.34;5012555;28;20037;-63
2022/11/18 05:43:11;;;;;;;6.00;4.03;;;;;;;22.23;46.30;93868.72;4970839;28;20052;-63
2022/11/18 05:45:42;;;;;;;5.53;4.35;;;;;;;22.25;46.05;93870.91;4972325;28;20652;-64
2022/11/18 05:48:07;;;;;;;;;;;;;;;22.51;46.02;93893.28;4996039;28;20032;-63
2022/11/18 05:50:35;;;;;;;5.07;4.13;;;;;;;22.55;45.88;93877.38;5014660;28;19921;-64
2022/11/18 05:53:01;;;;;;;5.88;4.43;;;;;;;22.73;46.04;93890.03;4993801;28;20494;-62
2022/11/18 05:55:32;;;;;;;5.38;4.22;;;;;;;22.73;45.82;93881.88;4979236;28;20044;-61
2022/11/18 05:57:59;;;;;;;5.70;4.13;;;;;;;21.50;45.25;93671.03;4997555;28;20049;-62
2022/11/18 06:00:24;;;;;;;5.32;4.32;;;;;;;21.68;45.54;93710.88;4981882;28;20033;-62
2022/11/18 06:02:49;;;;;;;5.82;4.68;;;;;;;22.97;45.56;93891.19;5008252;28;20068;-61
2022/11/18 06:05:15;;;;;;;5.57;4.38;;;;;;;22.96;44.95;93867.94;4978709;28;20056;-62
2022/11/18 06:07:41;;;;;;;6.68;4.35;;;;;;;22.72;44.90;93839.59;4971796;28;20469;-62
2022/11/18 06:10:07;;;;;;;5.55;4.45;;;;;;;23.27;44.76;93888.66;4977763;28;20057;-61
2022/11/18 06:12:35;;;;;;;6.30;5.00;;;;;;;23.41;44.04;93868.25;4979850;28;20167;-61
2022/11/18 06:15:17;;;;;;;5.47;4.63;;;;;;;23.50;43.95;93889.53;4993225;28;20106;-64
2022/11/18 06:17:54;;;;;;;5.63;4.70;;;;;;;23.39;44.11;93906.91;5010252;28;20121;-63
2022/11/18 06:20:20;;;;;;;7.35;4.53;;;;;;;23.30;44.42;93879.41;4986292;28;20075;-62
2022/11/18 06:22:46;;;;;;;6.15;4.70;;;;;;;23.45;44.02;93884.97;4991482;28;20135;-62
2022/11/18 06:25:12;;;;;;;5.30;4.18;;;;;;;23.49;44.43;93880.63;4993760;28;20044;-62
2022/11/18 06:27:37;;;;;;;5.93;4.60;;;;;;;23.58;44.08;93898.47;4997299;28;20480;-61
2022/11/18 06:30:03;;;;;;;6.25;4.20;;;;;;;21.54;43.65;93549.22;4999448;28;20835;-62
2022/11/18 06:32:29;;;;;;;6.90;5.07;;;;;;;23.73;43.29;93876.78;4998170;28;20064;-62
2022/11/18 06:34:54;;;;;;;6.55;4.75;;;;;;;23.69;43.89;93876.38;4999814;28;20123;-64
2022/11/18 06:37:20;;;;;;;7.40;4.80;;;;;;;23.72;43.67;93897.13;4997573;28;20111;-64
2022/11/18 06:39:45;;;;;;;6.72;4.40;;;;;;;23.83;43.59;93875.03;4981191;28;20033;-63
2022/11/18 06:43:37;;;;;;;5.45;4.03;;;;;;;23.85;43.01;93886.09;5015912;28;20065;-63
2022/11/18 06:44:56;;;;;;;6.03;4.40;;;;;;;23.94;42.82;93884.31;5016961;28;20073;-59
2022/11/18 06:47:21;;;;;;;5.72;4.40;;;;;;;23.95;42.83;93888.50;4983436;28;20034;-62
2022/11/18 06:49:47;;;;;;;6.57;4.88;;;;;;;23.92;42.94;93853.41;5016821;28;20033;-64
2022/11/18 06:52:12;;;;;;;6.35;5.13;;;;;;;24.18;42.64;93877.69;4980830;28;20052;-64
2022/11/18 06:54:38;;;;;;;6.63;4.97;;;;;;;23.91;42.50;93844.50;5015416;28;21070;-63
2022/11/18 06:57:03;;;;;;;6.47;4.93;;;;;;;24.33;41.88;93889.38;5014295;28;20773;-60
2022/11/18 06:59:29;;;;;;;6.07;4.97;;;;;;;24.41;42.29;93874.50;4998093;28;20128;-63
2022/11/18 07:01:54;;;;;;;6.15;4.72;;;;;;;24.34;42.13;93857.38;4997277;28;20053;-64
2022/11/18 07:04:20;;;;;;;5.82;4.63;;;;;;;23.87;41.29;93770.50;5016046;28;20049;-64
2022/11/18 07:06:45;;;;;;;6.78;5.05;;;;;;;24.85;40.76;93841.03;5014322;28;20465;-63
2022/11/18 07:09:11;;;;;;;6.22;4.63;;;;;;;24.93;40.92;93922.97;4997492;28;20048;-64
2022/11/18 07:24:19;;;;;;;5.60;4.72;;;;;;;22.67;41.15;93568.34;4968602;28;20069;-64
2022/11/18 07:27:58;;;;;;;6.63;4.90;;;;;;;24.57;41.40;93828.81;4992122;28;20060;-63
2022/11/18 07:31:55;;;;;;;6.85;5.38;;;;;;;24.53;41.74;93874.88;4954249;28;20467;-61
2022/11/18 07:35:36;;;;;;;6.13;5.20;;;;;;;22.58;42.07;93566.13;4977880;28;20049;-61
2022/11/18 07:39:25;;;;;;;5.60;4.50;;;;;;;23.51;42.06;93703.72;4973232;28;20295;-62
2022/11/18 07:46:35;;;;;;;6.05;4.95;;;;;;;24.03;42.46;93810.16;4908861;28;20048;-63
2022/11/18 07:50:18;;;;;;;5.65;4.63;;;;;;;24.20;42.74;93843.13;4939275;28;20473;-62
2022/11/18 07:54:03;;;;;;;6.47;5.20;;;;;;;21.92;42.87;93528.47;4966252;28;20086;-60
2022/11/18 07:57:42;;;;;;;7.43;4.65;;;;;;;24.12;42.73;93875.09;4976187;28;20104;-60
2022/11/18 08:01:30;;;;;;;6.47;4.80;;;;;;;23.90;42.67;93853.97;4954007;28;20050;-60
2022/11/18 08:05:14;;;;;;;6.43;5.03;;;;;;;23.90;42.86;93886.69;4971093;28;20159;-61
2022/11/18 08:09:03;;;;;;;5.88;4.97;;;;;;;22.96;42.20;93720.94;4980373;28;20641;-61
2022/11/18 08:12:44;;;;;;;6.45;5.28;;;;;;;23.86;43.21;93899.91;4973553;28;20148;-64
2022/11/18 08:16:18;;;;;;;6.05;5.10;;;;;;;23.86;43.41;93896.47;4953086;28;20066;-61
2022/11/18 08:20:07;;;;;;;6.82;4.88;;;;;;;22.96;43.38;93729.09;4961307;28;20045;-61
2022/11/18 08:23:44;;;;;;;6.50;4.90;;;;;;;23.74;43.20;93856.44;4974533;28;20431;-61
2022/11/18 08:27:22;;;;;;;6.45;5.05;;;;;;;23.63;43.75;93848.53;4936111;28;20167;-62
2022/11/18 08:31:01;;;;;;;8.20;5.47;;;;;;;22.30;43.01;93639.63;4927024;28;20734;-59
2022/11/18 08:34:43;;;;;;;6.53;4.85;;;;;;;22.88;43.09;93702.34;4930436;28;20077;-61
2022/11/18 08:38:28;;;;;;;6.22;4.53;;;;;;;23.37;43.56;93816.81;4960163;28;20721;-60
2022/11/18 08:42:08;;;;;;;7.10;5.03;;;;;;;23.58;43.83;93827.63;4958613;28;20077;-64
2022/11/18 08:45:48;;;;;;;6.32;4.97;;;;;;;23.72;43.27;93815.34;4947011;28;20073;-61
2022/11/18 08:49:32;;;;;;;7.25;5.25;;;;;;;22.39;42.99;93635.69;4924005;28;20101;-61
2022/11/18 08:53:12;;;;;;;6.30;5.25;;;;;;;23.63;43.59;93818.56;4957494;28;20049;-63
2022/11/18 08:57:03;;;;;;;6.72;5.15;;;;;;;22.36;43.81;93621.19;4958813;28;20661;-63
2022/11/18 09:00:40;;;;;;;6.18;4.57;;;;;;;23.74;43.14;93796.47;4937815;28;20065;-61
2022/11/18 09:04:09;;;;;;;7.45;5.18;;;;;;;22.59;44.00;93633.63;4935356;28;20672;-60
2022/11/18 09:07:46;;;;;;;6.93;5.00;;;;;;;23.32;43.91;93748.88;4939499;28;20069;-61
2022/11/18 09:11:25;;;;;;;7.65;5.55;;;;;;;23.46;44.21;93755.63;4953904;28;20054;-60
2022/11/18 09:15:01;;;;;;;6.50;5.05;;;;;;;22.63;43.69;93616.94;4955209;28;20046;-60
2022/11/18 09:18:38;;;;;;;6.05;4.90;;;;;;;23.64;43.61;93776.44;4956562;28;20060;-60
2022/11/18 09:22:15;;;;;;;6.85;5.40;;;;;;;22.19;43.31;93547.44;4944755;28;20062;-61
2022/11/18 09:26:02;;;;;;;7.53;5.30;;;;;;;23.31;43.81;93728.34;4956370;28;20156;-63
2022/11/18 09:29:42;;;;;;;6.95;5.20;;;;;;;22.61;43.78;93624.91;4973355;28;20046;-60
2022/11/18 09:33:22;;;;;;;6.47;4.90;;;;;;;23.68;43.95;93753.00;4960628;28;20085;-59
2022/11/18 09:37:05;;;;;;;8.10;5.40;;;;;;;23.61;43.53;93772.03;4967727;28;20065;-60
2022/11/18 09:40:46;;;;;;;7.22;5.10;;;;;;;23.67;43.74;93731.75;4958687;28;20159;-63
2022/11/18 09:44:18;;;;;;;7.03;5.40;;;;;;;23.71;43.36;93743.75;4979673;28;20753;-60
2022/11/18 09:48:01;;;;;;;7.85;5.18;;;;;;;23.80;43.25;93723.44;4957561;28;20148;-62
2022/11/18 09:51:39;;;;;;;7.68;5.68;;;;;;;22.87;43.34;93562.06;4973065;28;20057;-63
2022/11/18 09:55:05;;;;;;;7.00;5.55;;;;;;;23.89;43.02;93704.53;4966950;28;20064;-60
2022/11/18 09:58:45;;;;;;;6.70;5.30;;;;;;;23.94;43.32;93695.44;4957997;28;20763;-60
2022/11/18 10:02:14;;;;;;;7.22;5.22;;;;;;;23.93;43.23;93705.63;4968885;28;20153;-60
2022/11/18 10:06:08;;;;;;;7.25;5.28;;;;;;;24.09;42.68;93690.00;4959523;28;20150;-62
2022/11/18 10:09:34;;;;;;;7.97;5.63;;;;;;;24.26;42.73;93693.63;4967598;28;20554;-61
2022/11/18 10:12:58;;;;;;;7.28;5.40;;;;;;;24.14;42.76;93708.91;4973379;28;20073;-61
2022/11/18 10:15:46;;;;;;;7.50;5.40;;;;;;;23.06;42.47;93514.97;4967613;28;20049;-61
2022/11/18 10:18:32;;;;;;;8.07;5.32;;;;;;;24.23;42.85;93692.00;4978947;28;20589;-60
2022/11/18 10:21:03;;;;;;;7.55;5.72;;;;;;;24.29;42.92;93691.81;4979934;28;20500;-61
2022/11/18 10:23:34;;;;;;;7.35;5.38;;;;;;;24.36;42.13;93686.38;4999095;28;20064;-60
2022/11/18 10:25:59;;;;;;;8.13;5.47;;;;;;;24.42;42.61;93686.91;4978536;28;20053;-63
2022/11/18 10:28:28;;;;;;;8.63;5.93;;;;;;;23.41;42.18;93508.63;5011507;28;20476;-63
2022/11/18 10:31:06;;;;;;;7.40;5.70;;;;;;;24.50;42.10;93647.44;5016801;28;20441;-62
2022/11/18 10:33:31;;;;;;;7.22;5.13;;;;;;;24.13;42.29;93606.53;5017131;28;20490;-62
2022/11/18 10:36:15;;;;;;;8.77;5.72;;;;;;;21.05;41.99;93170.47;4999972;28;20037;-63
2022/11/18 10:38:41;;;;;;;8.05;5.82;;;;;;;24.54;42.14;93666.91;5016375;28;20045;-62
2022/11/18 10:41:17;;;;;;;8.27;6.07;;;;;;;24.68;42.12;93661.94;4998759;28;20103;-63
2022/11/18 10:43:53;;;;;;;9.07;5.90;;;;;;;24.68;42.13;93648.28;4998741;28;20057;-62
2022/11/18 10:46:24;;;;;;;8.68;5.55;;;;;;;24.82;41.57;93649.53;4996491;28;20141;-61
2022/11/18 10:49:08;;;;;;;9.07;5.72;;;;;;;24.67;41.57;93660.50;4999135;28;20045;-64
2022/11/18 10:51:37;;;;;;;8.25;5.90;;;;;;;23.62;41.52;93469.00;5015554;28;20033;-61
2022/11/18 10:54:27;;;;;;;8.40;6.10;;;;;;;24.67;41.68;93623.00;4996231;28;20599;-61
2022/11/18 10:57:06;;;;;;;7.65;6.00;;;;;;;24.86;41.61;93637.66;4997272;28;20387;-62
2022/11/18 10:59:46;;;;;;;8.70;6.40;;;;;;;23.69;41.61;93446.50;5000675;28;20349;-62
2022/11/18 11:02:29;;;;;;;;;;;;;;;24.82;41.81;93612.03;4999922;28;20060;-60
2022/11/18 11:04:55;;;;;;;9.50;6.18;;;;;;;25.01;41.34;93601.41;5016611;28;19927;-61
2022/11/18 11:07:31;;;;;;;7.70;5.60;;;;;;;25.23;40.73;93620.44;5015645;28;20037;-62
2022/11/18 11:10:05;;;;;;;7.80;5.80;;;;;;;24.98;41.33;93608.69;4998276;28;20422;-61
2022/11/18 11:12:34;;;;;;;8.25;6.25;;;;;;;24.90;41.37;93591.59;5016503;28;20560;-62
2022/11/18 11:15:15;;;;;;;8.63;6.13;;;;;;;24.77;41.17;93576.72;4982038;28;20033;-62
2022/11/18 11:18:40;;;;;;;8.70;6.32;;;;;;;25.24;40.78;93618.41;4999461;28;20041;-61
2022/11/18 11:20:37;;;;;;;8.35;5.80;;;;;;;25.16;40.90;93596.59;4999519;28;20107;-62
2022/11/18 11:23:13;;;;;;;8.77;6.35;;;;;;;24.91;40.87;93563.00;4998586;28;20041;-64
2022/11/18 11:25:43;;;;;;;9.93;6.07;;;;;;;25.04;41.42;93611.94;5016711;28;20551;-64
2022/11/18 11:28:21;;;;;;;9.27;6.10;;;;;;;24.32;40.73;93456.06;4980576;28;20049;-61
2022/11/18 11:30:56;;;;;;;7.93;5.70;;;;;;;24.88;40.52;93528.59;5016181;28;20052;-64
2022/11/18 11:33:29;;;;;;;8.48;6.15;;;;;;;25.06;40.58;93543.09;4975724;28;20566;-63
2022/11/18 11:36:13;;;;;;;8.93;6.35;;;;;;;25.45;40.22;93598.41;4996458;28;20592;-62
2022/11/18 11:39:01;;;;;;;8.23;5.72;;;;;;;25.28;40.48;93581.22;5015162;28;20608;-62
2022/11/18 11:41:37;;;;;;;8.02;6.00;;;;;;;23.83;40.03;93362.50;4995398;28;20052;-65
2022/11/18 11:44:35;;;;;;;7.75;5.82;;;;;;;25.61;40.11;93563.50;4997052;28;20132;-61
2022/11/18 11:50:15;;;;;;;8.30;6.13;;;;;;;26.02;39.47;93569.75;4993105;28;20132;-61
2022/11/18 11:52:40;;;;;;;7.75;5.70;;;;;;;25.73;40.01;93565.25;5014250;28;20049;-60
2022/11/18 11:55:11;;;;;;;8.07;5.90;;;;;;;25.53;39.67;93540.94;5012680;28;20060;-61
2022/11/18 11:57:55;;;;;;;7.95;6.15;;;;;;;25.74;39.85;93583.13;5014803;28;20021;-62
2022/11/18 12:00:21;;;;;;;10.65;7.05;;;;;;;25.71;39.91;93556.16;5012345;28;20079;-60
2022/11/18 12:02:55;;;;;;;10.75;6.60;;;;;;;25.66;39.58;93544.16;4988579;28;20061;-61
2022/11/18 12:05:35;;;;;;;9.52;6.70;;;;;;;25.76;39.59;93574.34;4984790;28;20329;-59
2022/11/18 12:08:11;;;;;;;7.82;5.95;;;;;;;25.45;39.76;93557.41;5013050;28;20060;-60
2022/11/18 12:10:45;;;;;;;8.48;6.10;;;;;;;25.56;39.94;93567.91;4963578;28;20053;-64
2022/11/18 12:13:14;;;;;;;8.23;6.00;;;;;;;25.53;39.97;93562.81;5014606;28;20057;-62
2022/11/18 12:15:54;;;;;;;8.57;6.30;;;;;;;25.32;40.34;93559.72;4989544;28;20259;-64
2022/11/18 12:18:20;;;;;;;;;;;;;;;25.32;40.30;93565.19;4963975;28;20156;-63
2022/11/18 12:20:47;;;;;;;7.68;5.72;;;;;;;25.29;40.34;93555.34;5012133;28;21024;-60
2022/11/18 12:23:26;;;;;;;8.35;6.00;;;;;;;25.16;40.64;93541.97;4979316;28;20045;-65
2022/11/18 12:26:03;;;;;;;8.43;6.10;;;;;;;25.27;40.64;93541.50;4979358;28;20057;-62
2022/11/18 12:28:36;;;;;;;8.35;6.00;;;;;;;25.19;40.65;93540.84;5003460;28;20144;-64
2022/11/18 12:31:17;;;;;;;8.43;6.07;;;;;;;25.10;40.83;93582.41;4995970;28;20110;-64
2022/11/18 12:34:03;;;;;;;8.57;6.20;;;;;;;24.97;41.03;93525.28;5013031;28;20038;-63
2022/11/18 12:36:33;;;;;;;8.95;6.20;;;;;;;24.99;41.20;93550.06;4995650;28;20078;-61
2022/11/18 12:39:24;;;;;;;9.77;6.47;;;;;;;24.87;41.28;93546.28;4975465;28;20049;-63
2022/11/18 12:44:34;;;;;;;8.25;6.25;;;;;;;24.79;41.18;93525.03;5013454;28;20096;-65
2022/11/18 12:47:03;;;;;;;8.68;6.00;;;;;;;24.66;41.24;93523.25;4961075;28;20188;-64
2022/11/18 12:49:28;;;;;;;8.43;6.27;;;;;;;21.91;40.87;93113.94;4975179;28;20061;-61
2022/11/18 12:51:57;;;;;;;8.30;6.15;;;;;;;24.61;41.39;93483.25;4992009;28;20049;-63
2022/11/18 12:54:33;;;;;;;8.10;6.15;;;;;;;24.70;41.55;93503.78;4979849;28;21019;-64
2022/11/18 12:57:01;;;;;;;9.32;5.80;;;;;;;24.65;41.61;93499.25;5008528;28;20487;-62
2022/11/18 12:59:30;;;;;;;9.52;6.45;;;;;;;24.20;41.65;93425.78;4973459;28;20562;-63
2022/11/18 13:02:03;;;;;;;8.48;5.70;;;;;;;24.60;41.53;93497.44;4977895;28;20781;-63
2022/11/18 13:04:28;;;;;;;9.40;6.30;;;;;;;24.47;42.08;93484.06;5007533;28;20045;-63
2022/11/18 13:06:58;;;;;;;8.23;5.60;;;;;;;23.29;41.95;93288.91;5011007;28;20188;-63
2022/11/18 13:09:24;;;;;;;;;;;;;;;24.47;42.02;93484.06;4976763;28;20045;-62
2022/11/18 13:11:53;;;;;;;7.97;6.18;;;;;;;23.22;42.41;93306.00;5011429;28;19932;-62
2022/11/18 13:20:32;;;;;;;10.18;6.20;;;;;;;24.25;42.60;93465.75;5008521;28;20611;-63
2022/11/18 13:25:44;;;;;;;7.05;5.30;;;;;;;24.29;42.49;93468.84;4993417;28;20056;-62